sensor_id;sensor_type;location;lat;lon;timestamp;pressure;altitude;pressure_sealevel;temperature;humidity
9676;BME280;4876;42.656;23.292;2022-10-16T00:00:37;94978.78;;;9.60;84.10
9676;BME280;4876;42.656;23.292;2022-10-16T00:03:05;94986.59;;;9.65;84.02
9676;BME280;4876;42.656;23.292;2022-10-16T00:05:38;94990.28;;;9.64;83.38
9676;BME280;4876;42.656;23.292;2022-10-16T00:08:08;94990.66;;;9.58;83.50
9676;BME280;4876;42.656;23.292;2022-10-16T00:10:36;94987.38;;;9.66;83.74
9676;BME280;4876;42.656;23.292;2022-10-16T00:13:04;94995.94;;;9.71;82.89
9676;BME280;4876;42.656;23.292;2022-10-16T00:15:36;94991.47;;;9.72;83.61
9676;BME280;4876;42.656;23.292;2022-10-16T00:18:06;94990.09;;;9.75;82.74
9676;BME280;4876;42.656;23.292;2022-10-16T00:20:34;94975.28;;;9.51;82.38
9676;BME280;4876;42.656;23.292;2022-10-16T00:23:02;94994.34;;;9.57;82.91
9676;BME280;4876;42.656;23.292;2022-10-16T00:25:31;94993.72;;;9.46;84.39
9676;BME280;4876;42.656;23.292;2022-10-16T00:27:59;95002.09;;;9.48;84.46
9676;BME280;4876;42.656;23.292;2022-10-16T00:30:26;95007.69;;;9.41;84.47
9676;BME280;4876;42.656;23.292;2022-10-16T00:32:54;95010.25;;;9.47;84.40
9676;BME280;4876;42.656;23.292;2022-10-16T00:35:24;95007.91;;;9.45;84.01
9676;BME280;4876;42.656;23.292;2022-10-16T00:37:51;95006.56;;;9.29;85.34
9676;BME280;4876;42.656;23.292;2022-10-16T00:40:18;95007.41;;;9.24;86.26
9676;BME280;4876;42.656;23.292;2022-10-16T00:42:49;95006.09;;;9.27;86.26
9676;BME280;4876;42.656;23.292;2022-10-16T00:45:21;95003.72;;;9.25;86.34
9676;BME280;4876;42.656;23.292;2022-10-16T00:47:48;94999.75;;;9.28;86.60
9676;BME280;4876;42.656;23.292;2022-10-16T00:50:22;95004.94;;;9.33;85.94
9676;BME280;4876;42.656;23.292;2022-10-16T00:52:51;94998.63;;;9.34;85.80
9676;BME280;4876;42.656;23.292;2022-10-16T00:55:19;95000.19;;;9.35;84.94
9676;BME280;4876;42.656;23.292;2022-10-16T00:57:57;94992.78;;;9.37;84.49
9676;BME280;4876;42.656;23.292;2022-10-16T01:00:26;95000.13;;;9.40;83.06
9676;BME280;4876;42.656;23.292;2022-10-16T01:02:56;95000.13;;;9.40;83.26
9676;BME280;4876;42.656;23.292;2022-10-16T01:05:35;95007.34;;;9.48;82.58
9676;BME280;4876;42.656;23.292;2022-10-16T01:08:12;95009.06;;;9.39;82.98
9676;BME280;4876;42.656;23.292;2022-10-16T01:10:46;95006.38;;;9.44;83.28
9676;BME280;4876;42.656;23.292;2022-10-16T01:13:23;95008.19;;;9.43;83.00
9676;BME280;4876;42.656;23.292;2022-10-16T01:15:55;95011.69;;;9.39;83.25
9676;BME280;4876;42.656;23.292;2022-10-16T01:18:32;95008.53;;;9.37;83.08
9676;BME280;4876;42.656;23.292;2022-10-16T01:21:12;95007.28;;;9.34;83.20
9676;BME280;4876;42.656;23.292;2022-10-16T01:23:48;95007.41;;;9.43;82.80
9676;BME280;4876;42.656;23.292;2022-10-16T01:26:37;94993.66;;;9.32;82.17
9676;BME280;4876;42.656;23.292;2022-10-16T01:29:19;94997.00;;;9.38;82.49
9676;BME280;4876;42.656;23.292;2022-10-16T01:31:57;94990.38;;;9.40;82.42
9676;BME280;4876;42.656;23.292;2022-10-16T01:34:44;94993.50;;;9.42;82.41
9676;BME280;4876;42.656;23.292;2022-10-16T01:37:16;94993.56;;;9.37;81.72
9676;BME280;4876;42.656;23.292;2022-10-16T01:39:47;94990.03;;;9.28;82.60
9676;BME280;4876;42.656;23.292;2022-10-16T01:42:23;95002.25;;;9.38;81.70
9676;BME280;4876;42.656;23.292;2022-10-16T01:44:53;94995.28;;;9.28;81.34
9676;BME280;4876;42.656;23.292;2022-10-16T01:47:22;94984.09;;;9.23;82.06
9676;BME280;4876;42.656;23.292;2022-10-16T01:49:53;95004.53;;;9.26;82.71
9676;BME280;4876;42.656;23.292;2022-10-16T01:52:32;95013.09;;;9.31;82.23
9676;BME280;4876;42.656;23.292;2022-10-16T01:55:09;95004.31;;;9.22;82.40
9676;BME280;4876;42.656;23.292;2022-10-16T01:57:47;95009.78;;;9.07;82.88
9676;BME280;4876;42.656;23.292;2022-10-16T02:00:19;95001.66;;;9.03;83.52
9676;BME280;4876;42.656;23.292;2022-10-16T02:02:57;95011.81;;;9.10;83.57
9676;BME280;4876;42.656;23.292;2022-10-16T02:05:44;95015.09;;;9.02;83.92
9676;BME280;4876;42.656;23.292;2022-10-16T02:08:12;95011.59;;;9.06;84.61
9676;BME280;4876;42.656;23.292;2022-10-16T02:10:44;95013.94;;;9.08;84.30
9676;BME280;4876;42.656;23.292;2022-10-16T02:13:22;95021.47;;;9.14;84.81
9676;BME280;4876;42.656;23.292;2022-10-16T02:15:54;95020.75;;;9.09;84.32
9676;BME280;4876;42.656;23.292;2022-10-16T02:18:21;95036.06;;;9.02;83.63
9676;BME280;4876;42.656;23.292;2022-10-16T02:20:53;95032.38;;;9.03;84.68
9676;BME280;4876;42.656;23.292;2022-10-16T02:23:27;95033.50;;;8.97;84.47
9676;BME280;4876;42.656;23.292;2022-10-16T02:26:24;95042.56;;;8.61;86.01
9676;BME280;4876;42.656;23.292;2022-10-16T02:32:04;95040.19;;;8.65;86.24
9676;BME280;4876;42.656;23.292;2022-10-16T02:34:32;95035.81;;;8.55;87.13
9676;BME280;4876;42.656;23.292;2022-10-16T02:37:01;95036.88;;;8.54;88.05
9676;BME280;4876;42.656;23.292;2022-10-16T02:39:30;95027.94;;;8.55;89.19
9676;BME280;4876;42.656;23.292;2022-10-16T02:41:57;95039.88;;;8.67;87.34
9676;BME280;4876;42.656;23.292;2022-10-16T02:44:24;95030.41;;;8.47;86.61
9676;BME280;4876;42.656;23.292;2022-10-16T02:46:51;95043.97;;;8.54;86.78
9676;BME280;4876;42.656;23.292;2022-10-16T02:49:19;95046.81;;;8.57;87.13
9676;BME280;4876;42.656;23.292;2022-10-16T02:51:45;95054.09;;;8.60;87.45
9676;BME280;4876;42.656;23.292;2022-10-16T02:54:12;95051.44;;;8.66;87.46
9676;BME280;4876;42.656;23.292;2022-10-16T02:56:39;95051.94;;;8.68;87.32
9676;BME280;4876;42.656;23.292;2022-10-16T02:59:06;95059.50;;;8.69;86.35
9676;BME280;4876;42.656;23.292;2022-10-16T03:01:32;95046.97;;;8.66;86.41
9676;BME280;4876;42.656;23.292;2022-10-16T03:03:59;95048.31;;;8.63;86.25
9676;BME280;4876;42.656;23.292;2022-10-16T03:06:27;95059.50;;;8.69;86.33
9676;BME280;4876;42.656;23.292;2022-10-16T03:08:54;95064.75;;;8.69;86.06
9676;BME280;4876;42.656;23.292;2022-10-16T03:11:21;95060.31;;;8.70;86.02
9676;BME280;4876;42.656;23.292;2022-10-16T03:13:48;95065.56;;;8.70;86.06
9676;BME280;4876;42.656;23.292;2022-10-16T03:16:14;95063.00;;;8.65;85.61
9676;BME280;4876;42.656;23.292;2022-10-16T03:18:41;95066.69;;;8.63;85.03
9676;BME280;4876;42.656;23.292;2022-10-16T03:21:08;95065.63;;;8.65;85.14
9676;BME280;4876;42.656;23.292;2022-10-16T03:23:36;95063.00;;;8.65;85.54
9676;BME280;4876;42.656;23.292;2022-10-16T03:26:02;95072.91;;;8.68;84.85
9676;BME280;4876;42.656;23.292;2022-10-16T03:28:29;95069.78;;;8.66;84.79
9676;BME280;4876;42.656;23.292;2022-10-16T03:30:56;95070.81;;;8.70;84.84
9676;BME280;4876;42.656;23.292;2022-10-16T03:33:23;95072.91;;;8.68;84.24
9676;BME280;4876;42.656;23.292;2022-10-16T03:35:53;95076.06;;;8.70;84.05
9676;BME280;4876;42.656;23.292;2022-10-16T03:38:21;95074.69;;;8.72;83.78
9676;BME280;4876;42.656;23.292;2022-10-16T03:40:49;95077.63;;;8.71;82.51
9676;BME280;4876;42.656;23.292;2022-10-16T03:43:16;95085.06;;;8.58;82.25
9676;BME280;4876;42.656;23.292;2022-10-16T03:45:43;95073.91;;;8.48;82.74
9676;BME280;4876;42.656;23.292;2022-10-16T03:48:09;95058.31;;;8.32;83.85
9676;BME280;4876;42.656;23.292;2022-10-16T03:50:36;95064.59;;;8.31;83.74
9676;BME280;4876;42.656;23.292;2022-10-16T03:53:03;95063.16;;;8.20;84.29
9676;BME280;4876;42.656;23.292;2022-10-16T03:55:30;95065.03;;;8.15;84.97
9676;BME280;4876;42.656;23.292;2022-10-16T03:57:58;95068.72;;;8.14;85.58
9676;BME280;4876;42.656;23.292;2022-10-16T04:00:25;95064.50;;;8.13;86.43
9676;BME280;4876;42.656;23.292;2022-10-16T04:02:52;95057.22;;;8.09;86.13
9676;BME280;4876;42.656;23.292;2022-10-16T04:05:19;95057.69;;;8.12;86.84
9676;BME280;4876;42.656;23.292;2022-10-16T04:07:45;95055.66;;;8.08;85.99
9676;BME280;4876;42.656;23.292;2022-10-16T04:10:12;95061.22;;;8.02;87.19
9676;BME280;4876;42.656;23.292;2022-10-16T04:12:39;95063.06;;;8.01;87.91
9676;BME280;4876;42.656;23.292;2022-10-16T04:15:08;95070.91;;;8.01;87.17
9676;BME280;4876;42.656;23.292;2022-10-16T04:17:35;95066.69;;;8.00;87.62
9676;BME280;4876;42.656;23.292;2022-10-16T04:20:03;95040.16;;;7.83;88.68
9676;BME280;4876;42.656;23.292;2022-10-16T04:22:30;95065.09;;;8.04;88.25
9676;BME280;4876;42.656;23.292;2022-10-16T04:24:57;95066.91;;;8.09;87.77
9676;BME280;4876;42.656;23.292;2022-10-16T04:27:23;95034.81;;;7.93;87.80
9676;BME280;4876;42.656;23.292;2022-10-16T04:29:50;95066.09;;;8.14;87.77
9676;BME280;4876;42.656;23.292;2022-10-16T04:32:18;95077.03;;;8.21;86.46
9676;BME280;4876;42.656;23.292;2022-10-16T04:34:45;95076.78;;;8.17;85.98
9676;BME280;4876;42.656;23.292;2022-10-16T04:37:12;95084.59;;;8.22;85.59
9676;BME280;4876;42.656;23.292;2022-10-16T04:39:38;95082.75;;;8.23;85.13
9676;BME280;4876;42.656;23.292;2022-10-16T04:42:05;95081.19;;;8.22;85.34
9676;BME280;4876;42.656;23.292;2022-10-16T04:44:32;95079.56;;;8.26;85.02
9676;BME280;4876;42.656;23.292;2022-10-16T04:46:59;95079.66;;;8.21;84.87
9676;BME280;4876;42.656;23.292;2022-10-16T04:49:27;95053.38;;;7.97;85.60
9676;BME280;4876;42.656;23.292;2022-10-16T04:51:54;95081.28;;;8.12;84.79
9676;BME280;4876;42.656;23.292;2022-10-16T04:54:21;95089.47;;;8.34;85.91
9676;BME280;4876;42.656;23.292;2022-10-16T04:56:50;95099.69;;;8.65;87.71
9676;BME280;4876;42.656;23.292;2022-10-16T04:59:18;95098.47;;;9.05;87.44
9676;BME280;4876;42.656;23.292;2022-10-16T05:01:45;95101.06;;;9.48;86.29
9676;BME280;4876;42.656;23.292;2022-10-16T05:04:12;95110.00;;;9.84;82.16
9676;BME280;4876;42.656;23.292;2022-10-16T05:06:41;95114.50;;;10.16;79.43
9676;BME280;4876;42.656;23.292;2022-10-16T05:09:08;95113.56;;;10.45;77.87
9676;BME280;4876;42.656;23.292;2022-10-16T05:11:35;95112.59;;;10.55;76.21
9676;BME280;4876;42.656;23.292;2022-10-16T05:14:02;95106.75;;;10.58;74.86
9676;BME280;4876;42.656;23.292;2022-10-16T05:16:32;95091.38;;;10.51;74.19
9676;BME280;4876;42.656;23.292;2022-10-16T05:18:58;95117.59;;;10.70;74.26
9676;BME280;4876;42.656;23.292;2022-10-16T05:21:28;95124.63;;;10.74;74.01
9676;BME280;4876;42.656;23.292;2022-10-16T05:23:58;95127.75;;;10.76;74.58
9676;BME280;4876;42.656;23.292;2022-10-16T05:26:24;95119.84;;;10.63;73.52
9676;BME280;4876;42.656;23.292;2022-10-16T05:28:51;95124.81;;;10.32;74.40
9676;BME280;4876;42.656;23.292;2022-10-16T05:31:18;95117.66;;;9.99;75.41
9676;BME280;4876;42.656;23.292;2022-10-16T05:33:45;95119.53;;;9.80;77.54
9676;BME280;4876;42.656;23.292;2022-10-16T05:36:11;95124.41;;;9.68;78.03
9676;BME280;4876;42.656;23.292;2022-10-16T05:38:38;95120.94;;;9.35;79.71
9676;BME280;4876;42.656;23.292;2022-10-16T05:41:06;95128.28;;;9.14;80.71
9676;BME280;4876;42.656;23.292;2022-10-16T05:43:33;95122.91;;;9.00;82.29
9676;BME280;4876;42.656;23.292;2022-10-16T05:46:01;95128.16;;;9.00;83.65
9676;BME280;4876;42.656;23.292;2022-10-16T05:48:28;95139.44;;;9.01;83.52
9676;BME280;4876;42.656;23.292;2022-10-16T05:50:57;95098.88;;;8.40;84.28
9676;BME280;4876;42.656;23.292;2022-10-16T05:53:24;95142.88;;;8.43;87.04
9676;BME280;4876;42.656;23.292;2022-10-16T05:55:52;95139.25;;;8.39;89.05
9676;BME280;4876;42.656;23.292;2022-10-16T05:58:21;95144.97;;;8.07;91.00
9676;BME280;4876;42.656;23.292;2022-10-16T06:00:55;95150.94;;;8.13;93.33
9676;BME280;4876;42.656;23.292;2022-10-16T06:03:22;95154.00;;;8.25;91.74
9676;BME280;4876;42.656;23.292;2022-10-16T06:05:49;95158.03;;;8.51;90.17
9676;BME280;4876;42.656;23.292;2022-10-16T06:08:16;95165.81;;;8.85;88.09
9676;BME280;4876;42.656;23.292;2022-10-16T06:10:43;95168.56;;;8.99;86.79
9676;BME280;4876;42.656;23.292;2022-10-16T06:13:10;95175.31;;;9.05;85.44
9676;BME280;4876;42.656;23.292;2022-10-16T06:15:38;95177.41;;;9.08;86.71
9676;BME280;4876;42.656;23.292;2022-10-16T06:18:07;95171.59;;;9.11;89.12
9676;BME280;4876;42.656;23.292;2022-10-16T06:20:34;95180.06;;;9.27;88.40
9676;BME280;4876;42.656;23.292;2022-10-16T06:23:00;95170.78;;;9.35;87.11
9676;BME280;4876;42.656;23.292;2022-10-16T06:25:27;95181.50;;;9.20;85.06
9676;BME280;4876;42.656;23.292;2022-10-16T06:27:54;95181.00;;;9.36;85.14
9676;BME280;4876;42.656;23.292;2022-10-16T06:30:21;95186.34;;;8.78;87.37
9676;BME280;4876;42.656;23.292;2022-10-16T06:32:49;95179.44;;;9.11;86.64
9676;BME280;4876;42.656;23.292;2022-10-16T06:35:15;95182.41;;;9.29;83.75
9676;BME280;4876;42.656;23.292;2022-10-16T06:37:42;95186.09;;;9.28;84.98
9676;BME280;4876;42.656;23.292;2022-10-16T06:40:09;95180.38;;;9.26;85.22
9676;BME280;4876;42.656;23.292;2022-10-16T06:42:36;95186.88;;;9.04;86.21
9676;BME280;4876;42.656;23.292;2022-10-16T06:45:03;95196.94;;;9.21;85.31
9676;BME280;4876;42.656;23.292;2022-10-16T06:47:30;95197.44;;;9.23;85.00
9676;BME280;4876;42.656;23.292;2022-10-16T06:49:58;95200.50;;;9.06;84.90
9676;BME280;4876;42.656;23.292;2022-10-16T06:52:27;95195.78;;;9.08;86.72
9676;BME280;4876;42.656;23.292;2022-10-16T06:54:54;95207.78;;;9.14;85.97
9676;BME280;4876;42.656;23.292;2022-10-16T06:57:21;95213.38;;;9.32;85.17
9676;BME280;4876;42.656;23.292;2022-10-16T06:59:48;95213.63;;;9.54;83.63
9676;BME280;4876;42.656;23.292;2022-10-16T07:02:15;95215.69;;;9.57;83.65
9676;BME280;4876;42.656;23.292;2022-10-16T07:04:42;95218.28;;;9.38;85.00
9676;BME280;4876;42.656;23.292;2022-10-16T07:07:10;95213.72;;;9.68;83.46
9676;BME280;4876;42.656;23.292;2022-10-16T07:09:40;95219.09;;;9.82;81.91
9676;BME280;4876;42.656;23.292;2022-10-16T07:12:07;95214.50;;;9.87;81.81
9676;BME280;4876;42.656;23.292;2022-10-16T07:14:33;95212.78;;;10.02;81.23
9676;BME280;4876;42.656;23.292;2022-10-16T07:17:00;95219.84;;;9.63;82.20
9676;BME280;4876;42.656;23.292;2022-10-16T07:19:27;95229.09;;;9.98;82.66
9676;BME280;4876;42.656;23.292;2022-10-16T07:21:54;95217.22;;;10.25;80.72
9676;BME280;4876;42.656;23.292;2022-10-16T07:24:26;95235.59;;;10.25;79.74
9676;BME280;4876;42.656;23.292;2022-10-16T07:26:53;95216.41;;;10.24;80.02
9676;BME280;4876;42.656;23.292;2022-10-16T07:29:21;95216.19;;;10.40;79.70
9676;BME280;4876;42.656;23.292;2022-10-16T07:31:48;95226.69;;;10.59;78.96
9676;BME280;4876;42.656;23.292;2022-10-16T07:34:17;95230.34;;;10.76;79.50
9676;BME280;4876;42.656;23.292;2022-10-16T07:36:47;95228.69;;;10.81;77.87
9676;BME280;4876;42.656;23.292;2022-10-16T07:39:14;95228.34;;;10.87;76.88
9676;BME280;4876;42.656;23.292;2022-10-16T07:41:42;95222.91;;;10.65;78.51
9676;BME280;4876;42.656;23.292;2022-10-16T07:44:09;95225.50;;;10.84;78.57
9676;BME280;4876;42.656;23.292;2022-10-16T07:46:35;95229.81;;;11.07;75.34
9676;BME280;4876;42.656;23.292;2022-10-16T07:49:02;95224.34;;;11.03;76.25
9676;BME280;4876;42.656;23.292;2022-10-16T07:51:30;95225.94;;;11.18;76.32
9676;BME280;4876;42.656;23.292;2022-10-16T07:53:57;95230.94;;;11.47;74.31
9676;BME280;4876;42.656;23.292;2022-10-16T07:56:23;95236.19;;;11.33;74.31
9676;BME280;4876;42.656;23.292;2022-10-16T07:58:52;95229.44;;;11.14;75.86
9676;BME280;4876;42.656;23.292;2022-10-16T08:01:19;95243.22;;;11.52;74.37
9676;BME280;4876;42.656;23.292;2022-10-16T08:03:47;95243.91;;;11.44;73.88
9676;BME280;4876;42.656;23.292;2022-10-16T08:06:14;95231.44;;;11.63;73.22
9676;BME280;4876;42.656;23.292;2022-10-16T08:08:41;95242.06;;;11.58;73.91
9676;BME280;4876;42.656;23.292;2022-10-16T08:11:08;95232.38;;;11.67;73.94
9676;BME280;4876;42.656;23.292;2022-10-16T08:13:35;95218.72;;;11.79;71.63
9676;BME280;4876;42.656;23.292;2022-10-16T08:16:04;95239.13;;;12.01;70.40
9676;BME280;4876;42.656;23.292;2022-10-16T08:18:34;95235.97;;;12.12;71.58
9676;BME280;4876;42.656;23.292;2022-10-16T08:21:01;95236.50;;;12.23;70.72
9676;BME280;4876;42.656;23.292;2022-10-16T08:23:28;95233.31;;;12.26;70.23
9676;BME280;4876;42.656;23.292;2022-10-16T08:25:56;95238.94;;;12.33;69.51
9676;BME280;4876;42.656;23.292;2022-10-16T08:28:27;95239.97;;;12.24;70.44
9676;BME280;4876;42.656;23.292;2022-10-16T08:30:54;95222.78;;;12.12;70.17
9676;BME280;4876;42.656;23.292;2022-10-16T08:33:23;95234.28;;;12.30;69.43
9676;BME280;4876;42.656;23.292;2022-10-16T08:35:51;95229.13;;;12.48;69.79
9676;BME280;4876;42.656;23.292;2022-10-16T08:38:18;95240.44;;;12.48;68.57
9676;BME280;4876;42.656;23.292;2022-10-16T08:40:45;95223.97;;;12.65;68.47
9676;BME280;4876;42.656;23.292;2022-10-16T08:43:35;95233.63;;;12.70;67.44
9676;BME280;4876;42.656;23.292;2022-10-16T08:46:21;95238.72;;;12.88;67.47
9676;BME280;4876;42.656;23.292;2022-10-16T08:48:57;95233.44;;;12.88;66.51
9676;BME280;4876;42.656;23.292;2022-10-16T08:51:27;95237.16;;;12.87;65.48
9676;BME280;4876;42.656;23.292;2022-10-16T08:53:56;95235.34;;;12.97;66.15
9676;BME280;4876;42.656;23.292;2022-10-16T08:56:24;95191.09;;;12.71;65.57
9676;BME280;4876;42.656;23.292;2022-10-16T08:58:52;95229.59;;;12.94;65.61
9676;BME280;4876;42.656;23.292;2022-10-16T09:01:21;95249.13;;;13.16;61.85
9676;BME280;4876;42.656;23.292;2022-10-16T09:04:03;95241.28;;;13.25;61.50
9676;BME280;4876;42.656;23.292;2022-10-16T09:06:46;95246.91;;;13.32;59.75
9676;BME280;4876;42.656;23.292;2022-10-16T09:09:28;95249.97;;;13.56;60.52
9676;BME280;4876;42.656;23.292;2022-10-16T09:12:05;95249.06;;;13.61;58.13
9676;BME280;4876;42.656;23.292;2022-10-16T09:14:49;95238.22;;;13.88;58.30
9676;BME280;4876;42.656;23.292;2022-10-16T09:17:28;95244.34;;;13.97;57.11
9676;BME280;4876;42.656;23.292;2022-10-16T09:20:09;95237.47;;;13.96;57.02
9676;BME280;4876;42.656;23.292;2022-10-16T09:22:39;95245.13;;;14.07;56.56
9676;BME280;4876;42.656;23.292;2022-10-16T09:25:11;95227.84;;;14.09;56.43
9676;BME280;4876;42.656;23.292;2022-10-16T09:27:39;95231.91;;;14.24;54.01
9676;BME280;4876;42.656;23.292;2022-10-16T09:30:12;95230.19;;;14.19;54.79
9676;BME280;4876;42.656;23.292;2022-10-16T09:32:40;95246.22;;;14.32;54.44
9676;BME280;4876;42.656;23.292;2022-10-16T09:35:13;95237.66;;;14.26;55.69
9676;BME280;4876;42.656;23.292;2022-10-16T09:37:42;95234.28;;;14.51;54.58
9676;BME280;4876;42.656;23.292;2022-10-16T09:40:12;95241.91;;;14.53;54.61
9676;BME280;4876;42.656;23.292;2022-10-16T09:42:39;95236.47;;;14.67;55.06
9676;BME280;4876;42.656;23.292;2022-10-16T09:45:20;95238.94;;;14.63;53.94
9676;BME280;4876;42.656;23.292;2022-10-16T09:47:48;95234.28;;;14.51;51.73
9676;BME280;4876;42.656;23.292;2022-10-16T09:50:23;95230.84;;;14.42;51.72
9676;BME280;4876;42.656;23.292;2022-10-16T09:53:03;95233.47;;;14.34;52.34
9676;BME280;4876;42.656;23.292;2022-10-16T09:55:30;95223.03;;;14.46;52.55
9676;BME280;4876;42.656;23.292;2022-10-16T09:57:56;95226.19;;;14.48;52.42
9676;BME280;4876;42.656;23.292;2022-10-16T10:00:24;95221.66;;;14.57;52.74
9676;BME280;4876;42.656;23.292;2022-10-16T10:02:52;95230.41;;;14.66;52.97
9676;BME280;4876;42.656;23.292;2022-10-16T10:05:23;95215.41;;;14.70;52.59
9676;BME280;4876;42.656;23.292;2022-10-16T10:07:56;95202.00;;;14.84;51.51
9676;BME280;4876;42.656;23.292;2022-10-16T10:10:25;95206.72;;;14.78;51.42
9676;BME280;4876;42.656;23.292;2022-10-16T10:12:54;95211.03;;;14.92;51.34
9676;BME280;4876;42.656;23.292;2022-10-16T10:15:22;95200.44;;;14.92;50.63
9676;BME280;4876;42.656;23.292;2022-10-16T10:17:51;95214.75;;;14.99;51.92
9676;BME280;4876;42.656;23.292;2022-10-16T10:20:26;95217.69;;;15.06;51.21
9676;BME280;4876;42.656;23.292;2022-10-16T10:22:57;95211.19;;;15.33;50.11
9676;BME280;4876;42.656;23.292;2022-10-16T10:25:39;95223.72;;;15.24;50.15
9676;BME280;4876;42.656;23.292;2022-10-16T10:31:15;95212.59;;;15.40;49.58
9676;BME280;4876;42.656;23.292;2022-10-16T10:33:47;95200.47;;;15.30;49.10
9676;BME280;4876;42.656;23.292;2022-10-16T10:36:29;95206.78;;;15.46;49.25
9676;BME280;4876;42.656;23.292;2022-10-16T10:38:59;95207.44;;;15.43;49.15
9676;BME280;4876;42.656;23.292;2022-10-16T10:44:27;95193.34;;;15.51;49.28
9676;BME280;4876;42.656;23.292;2022-10-16T10:47:03;95198.22;;;15.49;49.08
9676;BME280;4876;42.656;23.292;2022-10-16T10:49:47;95194.19;;;15.43;48.39
9676;BME280;4876;42.656;23.292;2022-10-16T10:52:31;95190.53;;;15.56;48.29
9676;BME280;4876;42.656;23.292;2022-10-16T10:55:09;95181.00;;;15.64;47.90
9676;BME280;4876;42.656;23.292;2022-10-16T10:57:49;95182.53;;;15.74;46.88
9676;BME280;4876;42.656;23.292;2022-10-16T11:00:23;95183.91;;;15.71;46.64
9676;BME280;4876;42.656;23.292;2022-10-16T11:03:00;95182.94;;;15.84;47.01
9676;BME280;4876;42.656;23.292;2022-10-16T11:05:40;95172.63;;;15.83;45.77
9676;BME280;4876;42.656;23.292;2022-10-16T11:08:13;95171.41;;;16.01;46.79
9676;BME280;4876;42.656;23.292;2022-10-16T11:10:47;95160.59;;;16.06;45.00
9676;BME280;4876;42.656;23.292;2022-10-16T11:13:24;95172.97;;;16.23;46.03
9676;BME280;4876;42.656;23.292;2022-10-16T11:15:57;95166.22;;;16.26;44.12
9676;BME280;4876;42.656;23.292;2022-10-16T11:18:30;95165.72;;;16.11;46.10
9676;BME280;4876;42.656;23.292;2022-10-16T11:21:03;95172.84;;;16.40;44.70
9676;BME280;4876;42.656;23.292;2022-10-16T11:23:38;95167.53;;;16.40;45.16
9676;BME280;4876;42.656;23.292;2022-10-16T11:26:13;95171.00;;;16.53;44.87
9676;BME280;4876;42.656;23.292;2022-10-16T11:28:45;95159.66;;;16.44;43.39
9676;BME280;4876;42.656;23.292;2022-10-16T11:31:16;95160.66;;;16.39;43.66
9676;BME280;4876;42.656;23.292;2022-10-16T11:33:46;95156.78;;;16.37;42.92
9676;BME280;4876;42.656;23.292;2022-10-16T11:36:19;95157.25;;;16.51;43.47
9676;BME280;4876;42.656;23.292;2022-10-16T11:38:54;95162.56;;;16.51;43.17
9676;BME280;4876;42.656;23.292;2022-10-16T11:41:27;95154.44;;;16.68;42.17
9676;BME280;4876;42.656;23.292;2022-10-16T11:44:19;95166.19;;;16.67;41.46
9676;BME280;4876;42.656;23.292;2022-10-16T11:46:57;95156.88;;;16.61;41.63
9676;BME280;4876;42.656;23.292;2022-10-16T11:49:27;95157.38;;;16.76;40.96
9676;BME280;4876;42.656;23.292;2022-10-16T11:52:02;95175.91;;;16.84;41.99
9676;BME280;4876;42.656;23.292;2022-10-16T11:54:39;95162.88;;;16.71;42.06
9676;BME280;4876;42.656;23.292;2022-10-16T11:57:12;95162.41;;;16.68;42.41
9676;BME280;4876;42.656;23.292;2022-10-16T11:59:43;95156.78;;;16.70;42.26
9676;BME280;4876;42.656;23.292;2022-10-16T12:02:36;95156.16;;;16.73;40.92
9676;BME280;4876;42.656;23.292;2022-10-16T12:05:17;95159.38;;;16.79;41.70
9676;BME280;4876;42.656;23.292;2022-10-16T12:07:51;95166.81;;;16.85;41.25
9676;BME280;4876;42.656;23.292;2022-10-16T12:10:24;95161.56;;;16.77;42.61
9676;BME280;4876;42.656;23.292;2022-10-16T12:12:53;95160.38;;;16.53;42.90
9676;BME280;4876;42.656;23.292;2022-10-16T12:15:24;95161.94;;;16.54;42.44
9676;BME280;4876;42.656;23.292;2022-10-16T12:17:51;95158.38;;;16.71;42.43
9676;BME280;4876;42.656;23.292;2022-10-16T12:20:22;95163.38;;;16.64;42.14
9676;BME280;4876;42.656;23.292;2022-10-16T12:22:52;95164.22;;;16.77;41.35
9676;BME280;4876;42.656;23.292;2022-10-16T12:25:24;95159.41;;;16.91;41.30
9676;BME280;4876;42.656;23.292;2022-10-16T12:27:58;95161.41;;;17.06;41.37
9676;BME280;4876;42.656;23.292;2022-10-16T12:30:27;95140.81;;;16.91;41.35
9676;BME280;4876;42.656;23.292;2022-10-16T12:32:56;95157.66;;;17.07;40.92
9676;BME280;4876;42.656;23.292;2022-10-16T12:35:26;95166.97;;;17.13;43.34
9676;BME280;4876;42.656;23.292;2022-10-16T12:37:54;95164.53;;;17.08;43.72
9676;BME280;4876;42.656;23.292;2022-10-16T12:40:34;95130.41;;;16.98;43.64
9676;BME280;4876;42.656;23.292;2022-10-16T12:43:12;95158.34;;;17.29;43.49
9676;BME280;4876;42.656;23.292;2022-10-16T12:45:39;95159.47;;;17.28;43.26
9676;BME280;4876;42.656;23.292;2022-10-16T12:48:19;95163.13;;;17.35;44.94
9676;BME280;4876;42.656;23.292;2022-10-16T12:50:47;95162.13;;;17.28;44.27
9676;BME280;4876;42.656;23.292;2022-10-16T12:53:19;95160.56;;;17.27;44.17
9676;BME280;4876;42.656;23.292;2022-10-16T12:55:57;95167.22;;;17.20;44.58
9676;BME280;4876;42.656;23.292;2022-10-16T12:58:46;95166.31;;;17.04;45.27
9676;BME280;4876;42.656;23.292;2022-10-16T13:04:19;95169.19;;;17.11;44.23
9676;BME280;4876;42.656;23.292;2022-10-16T13:06:53;95176.28;;;17.32;44.63
9676;BME280;4876;42.656;23.292;2022-10-16T13:09:33;95177.72;;;17.17;44.92
9676;BME280;4876;42.656;23.292;2022-10-16T13:12:16;95175.63;;;17.22;44.16
9676;BME280;4876;42.656;23.292;2022-10-16T13:15:02;95188.59;;;17.24;44.67
9676;BME280;4876;42.656;23.292;2022-10-16T13:17:39;95163.88;;;17.23;45.53
9676;BME280;4876;42.656;23.292;2022-10-16T13:20:16;95167.88;;;17.17;45.91
9676;BME280;4876;42.656;23.292;2022-10-16T13:22:51;95167.09;;;17.41;45.01
9676;BME280;4876;42.656;23.292;2022-10-16T13:25:28;95176.97;;;17.53;44.48
9676;BME280;4876;42.656;23.292;2022-10-16T13:28:01;95172.53;;;17.45;44.24
9676;BME280;4876;42.656;23.292;2022-10-16T13:30:30;95175.66;;;17.47;44.41
9676;BME280;4876;42.656;23.292;2022-10-16T13:33:01;95177.53;;;17.59;43.07
9676;BME280;4876;42.656;23.292;2022-10-16T13:35:30;95166.34;;;17.41;42.65
9676;BME280;4876;42.656;23.292;2022-10-16T13:38:12;95179.06;;;17.23;42.92
9676;BME280;4876;42.656;23.292;2022-10-16T13:40:49;95156.44;;;17.05;43.31
9676;BME280;4876;42.656;23.292;2022-10-16T13:43:19;95175.84;;;17.30;43.26
9676;BME280;4876;42.656;23.292;2022-10-16T13:45:58;95169.97;;;17.24;43.73
9676;BME280;4876;42.656;23.292;2022-10-16T13:48:27;95166.31;;;17.16;43.35